createdAt,value
2018-03-07T00:01:53.719Z,45.30
2018-03-07T00:04:21.135Z,45.30
2018-03-07T00:06:48.564Z,45.30
2018-03-07T00:09:17.011Z,46.70
2018-03-07T00:11:44.463Z,46.70
2018-03-07T00:14:11.890Z,46.50
2018-03-07T00:16:39.314Z,45.80
2018-03-07T00:19:06.734Z,45.00
2018-03-07T00:21:34.303Z,44.80
2018-03-07T00:24:01.723Z,43.50
2018-03-07T00:26:29.150Z,43.40
2018-03-07T00:28:56.639Z,46.00
2018-03-07T00:31:24.115Z,46.30
2018-03-07T00:33:51.540Z,45.80
2018-03-07T00:36:18.950Z,45.80
2018-03-07T00:38:46.393Z,45.00
2018-03-07T00:41:13.810Z,43.60
2018-03-07T00:43:41.398Z,43.50
2018-03-07T00:46:09.155Z,43.30
2018-03-07T00:48:36.598Z,43.10
2018-03-07T00:51:04.014Z,42.60
2018-03-07T00:53:31.458Z,43.00
2018-03-07T00:55:58.907Z,42.70
2018-03-07T00:58:26.443Z,42.70
2018-03-07T01:00:53.858Z,42.40
2018-03-07T01:03:21.355Z,42.90
2018-03-07T01:05:48.803Z,44.40
2018-03-07T01:08:16.266Z,44.10
2018-03-07T01:10:43.706Z,44.50
2018-03-07T01:13:11.146Z,44.60
2018-03-07T01:15:38.628Z,44.20
2018-03-07T01:18:06.054Z,43.20
2018-03-07T01:20:33.548Z,43.10
2018-03-07T01:23:01.003Z,43.70
2018-03-07T01:25:28.454Z,44.20
2018-03-07T01:27:55.916Z,43.30
2018-03-07T01:30:23.347Z,43.00
2018-03-07T01:32:50.826Z,42.90
2018-03-07T01:35:18.262Z,42.50
2018-03-07T01:37:45.739Z,42.30
2018-03-07T01:40:13.175Z,42.50
2018-03-07T01:42:40.599Z,43.30
2018-03-07T01:45:08.032Z,43.30
2018-03-07T01:47:35.454Z,43.30
2018-03-07T01:50:02.963Z,43.10
2018-03-07T01:52:30.385Z,42.90
2018-03-07T01:54:57.822Z,42.20
2018-03-07T01:57:25.389Z,41.50
2018-03-07T01:59:52.821Z,42.20
2018-03-07T02:02:20.255Z,42.30
2018-03-07T02:04:47.760Z,41.90
2018-03-07T02:07:15.521Z,42.00
2018-03-07T02:09:42.946Z,41.70
2018-03-07T02:12:10.434Z,42.00
2018-03-07T02:14:37.903Z,41.80
2018-03-07T02:17:05.348Z,42.50
2018-03-07T02:19:32.767Z,42.70
2018-03-07T02:22:00.262Z,43.30
2018-03-07T02:24:27.679Z,43.60
2018-03-07T02:26:55.171Z,44.60
2018-03-07T02:29:22.590Z,45.10
2018-03-07T02:31:50.019Z,45.40
2018-03-07T02:34:17.540Z,45.30
2018-03-07T02:36:44.978Z,45.00
2018-03-07T02:39:12.458Z,44.80
2018-03-07T02:41:39.909Z,45.10
2018-03-07T02:44:07.366Z,45.10
2018-03-07T02:46:34.826Z,45.80
2018-03-07T02:49:02.308Z,46.00
2018-03-07T02:51:29.736Z,46.30
2018-03-07T02:53:57.202Z,46.80
2018-03-07T02:56:24.643Z,47.70
2018-03-07T02:58:52.081Z,48.40
2018-03-07T03:01:19.495Z,48.40
2018-03-07T03:03:46.928Z,48.80
2018-03-07T03:06:14.504Z,48.60
2018-03-07T03:08:42.246Z,48.00
2018-03-07T03:11:09.763Z,48.10
2018-03-07T03:13:37.191Z,48.50
2018-03-07T03:16:04.612Z,49.10
2018-03-07T03:18:32.062Z,49.20
2018-03-07T03:20:59.516Z,49.60
2018-03-07T03:23:26.942Z,49.90
2018-03-07T03:25:54.372Z,50.20
2018-03-07T03:28:21.908Z,49.50
2018-03-07T03:30:49.357Z,49.70
2018-03-07T03:33:16.788Z,50.90
2018-03-07T03:35:44.265Z,50.60
2018-03-07T03:38:11.722Z,50.90
2018-03-07T03:40:39.143Z,50.30
2018-03-07T03:43:06.633Z,48.80
2018-03-07T03:45:34.072Z,48.90
2018-03-07T03:48:01.543Z,49.00
2018-03-07T03:50:28.973Z,48.70
2018-03-07T03:52:56.395Z,48.30
2018-03-07T03:55:23.918Z,47.60
2018-03-07T03:57:51.678Z,47.30
2018-03-07T04:00:19.121Z,45.90
2018-03-07T04:02:46.544Z,45.40
2018-03-07T04:05:13.988Z,42.10
2018-03-07T04:07:41.507Z,42.70
2018-03-07T04:10:08.964Z,44.10
2018-03-07T04:12:36.399Z,44.80
2018-03-07T04:15:03.832Z,45.10
2018-03-07T04:17:31.260Z,45.50
2018-03-07T04:19:59.706Z,47.00
2018-03-07T04:22:27.160Z,47.00
2018-03-07T04:24:54.598Z,46.30
2018-03-07T04:27:22.074Z,46.50
2018-03-07T04:29:49.846Z,48.00
2018-03-07T04:32:17.328Z,47.00
2018-03-07T04:34:44.964Z,46.60
2018-03-07T04:37:12.509Z,46.10
2018-03-07T04:39:39.940Z,45.90
2018-03-07T04:42:07.380Z,46.40
2018-03-07T04:44:35.525Z,47.10
2018-03-07T04:47:02.972Z,46.50
2018-03-07T04:49:30.404Z,46.40
2018-03-07T04:51:58.053Z,45.40
2018-03-07T04:54:25.495Z,46.40
2018-03-07T04:56:53.709Z,46.70
2018-03-07T04:59:21.340Z,46.50
2018-03-07T05:01:48.832Z,46.20
2018-03-07T05:04:16.288Z,45.60
2018-03-07T05:06:43.836Z,46.10
2018-03-07T05:09:11.287Z,46.20
2018-03-07T05:11:38.708Z,46.10
2018-03-07T05:14:06.140Z,47.70
2018-03-07T05:16:33.664Z,50.30
2018-03-07T05:19:01.117Z,51.20
2018-03-07T05:21:28.770Z,51.60
2018-03-07T05:23:56.200Z,50.10
2018-03-07T05:26:23.719Z,49.40
2018-03-07T05:28:51.159Z,50.50
2018-03-07T05:31:18.708Z,51.30
2018-03-07T05:33:46.328Z,50.60
2018-03-07T05:36:13.828Z,51.30
2018-03-07T05:38:41.256Z,50.50
2018-03-07T05:41:08.794Z,52.10
2018-03-07T05:43:36.227Z,51.50
2018-03-07T05:46:03.752Z,52.40
2018-03-07T05:48:31.397Z,52.50
2018-03-07T05:50:58.966Z,51.90
2018-03-07T05:53:26.549Z,51.30
2018-03-07T05:55:54.096Z,50.70
2018-03-07T05:58:21.533Z,50.20
2018-03-07T06:00:50.030Z,51.10
2018-03-07T06:03:17.484Z,51.40
2018-03-07T06:05:44.940Z,51.40
2018-03-07T06:08:12.700Z,51.40
2018-03-07T06:10:40.164Z,51.80
2018-03-07T06:13:07.619Z,50.90
2018-03-07T06:15:35.062Z,51.00
2018-03-07T06:18:02.520Z,50.90
2018-03-07T06:20:29.972Z,49.90
2018-03-07T06:22:57.387Z,50.40
2018-03-07T06:25:24.892Z,48.90
2018-03-07T06:27:52.342Z,50.30
2018-03-07T06:30:19.820Z,52.00
2018-03-07T06:32:47.264Z,53.60
2018-03-07T06:35:14.697Z,53.40
2018-03-07T06:37:42.171Z,53.20
2018-03-07T06:40:09.812Z,51.50
2018-03-07T06:42:37.315Z,52.80
2018-03-07T06:45:04.788Z,53.40
2018-03-07T06:47:32.315Z,53.70
2018-03-07T06:50:00.074Z,53.00
2018-03-07T06:52:27.503Z,53.70
2018-03-07T06:54:55.712Z,55.60
2018-03-07T06:57:23.260Z,55.50
2018-03-07T06:59:50.754Z,55.70
2018-03-07T07:02:18.274Z,56.10
2018-03-07T07:04:45.728Z,55.80
2018-03-07T07:07:13.156Z,55.90
2018-03-07T07:09:40.584Z,55.00
2018-03-07T07:12:08.103Z,54.80
2018-03-07T07:14:35.728Z,53.40
2018-03-07T07:17:03.320Z,52.70
2018-03-07T07:19:30.774Z,53.40
2018-03-07T07:21:58.410Z,53.40
2018-03-07T07:24:26.004Z,53.10
2018-03-07T07:26:53.623Z,52.60
2018-03-07T07:29:21.052Z,52.00
2018-03-07T07:31:49.248Z,51.20
2018-03-07T07:34:16.737Z,51.10
2018-03-07T07:36:44.168Z,50.90
2018-03-07T07:39:11.652Z,49.60
2018-03-07T07:41:39.112Z,49.40
2018-03-07T07:44:06.536Z,49.20
2018-03-07T07:46:33.962Z,48.90
2018-03-07T07:49:01.396Z,48.30
2018-03-07T07:51:28.835Z,48.40
2018-03-07T07:53:56.264Z,48.00
2018-03-07T07:56:23.740Z,47.30
2018-03-07T07:58:51.304Z,46.00
2018-03-07T08:01:18.724Z,46.10
2018-03-07T08:03:46.158Z,46.40
2018-03-07T08:06:13.673Z,44.40
2018-03-07T08:08:41.095Z,45.90
2018-03-07T08:11:08.519Z,44.50
2018-03-07T08:13:36.036Z,44.70
2018-03-07T08:16:03.463Z,46.50
2018-03-07T08:18:30.904Z,46.20
2018-03-07T08:20:58.336Z,45.70
2018-03-07T08:23:25.864Z,46.10
2018-03-07T08:25:54.250Z,45.90
2018-03-07T08:28:21.697Z,45.90
2018-03-07T08:30:49.971Z,45.80
2018-03-07T08:33:17.527Z,45.70
2018-03-07T08:35:44.998Z,45.00
2018-03-07T08:38:12.452Z,46.50
2018-03-07T08:40:39.900Z,47.90
2018-03-07T08:43:07.331Z,47.90
2018-03-07T08:45:34.756Z,43.00
2018-03-07T08:48:02.267Z,43.60
2018-03-07T08:50:30.644Z,41.30
2018-03-07T08:52:58.083Z,39.00
2018-03-07T08:55:25.548Z,35.80
2018-03-07T08:57:52.919Z,35.60
2018-03-07T09:00:20.375Z,35.20
2018-03-07T09:02:47.956Z,35.30
2018-03-07T09:05:15.394Z,35.80
2018-03-07T09:07:42.912Z,35.20
2018-03-07T09:10:10.497Z,34.60
2018-03-07T09:12:38.060Z,34.60
2018-03-07T09:15:05.519Z,34.40
2018-03-07T09:20:26.452Z,33.00
2018-03-07T09:22:53.995Z,33.00
2018-03-07T09:25:21.628Z,31.60
2018-03-07T09:27:49.055Z,31.70
2018-03-07T09:30:16.673Z,30.60
2018-03-07T09:32:44.132Z,29.70
2018-03-07T09:35:11.584Z,30.00
2018-03-07T09:37:39.040Z,29.60
2018-03-07T09:40:06.492Z,29.20
2018-03-07T09:42:33.903Z,29.10
2018-03-07T09:45:01.340Z,29.80
2018-03-07T09:47:28.764Z,30.30
2018-03-07T09:49:56.320Z,28.80
2018-03-07T09:52:23.781Z,28.70
2018-03-07T09:54:51.246Z,27.90
2018-03-07T09:57:18.686Z,27.30
2018-03-07T09:59:46.100Z,27.70
2018-03-07T10:02:13.528Z,26.70
2018-03-07T10:04:41.058Z,25.70
2018-03-07T10:07:08.514Z,24.70
2018-03-07T10:09:35.916Z,24.70
2018-03-07T10:12:03.355Z,23.60
2018-03-07T10:14:30.911Z,22.80
2018-03-07T10:16:58.339Z,22.90
2018-03-07T10:19:26.114Z,23.70
2018-03-07T10:21:53.556Z,23.50
2018-03-07T10:24:20.964Z,23.30
2018-03-07T10:26:49.166Z,24.00
2018-03-07T10:29:16.588Z,24.00
2018-03-07T10:31:44.180Z,22.70
2018-03-07T10:34:14.110Z,23.00
2018-03-07T10:36:41.881Z,22.10
2018-03-07T10:39:11.279Z,22.00
2018-03-07T10:41:41.320Z,21.70
2018-03-07T10:44:09.720Z,22.00
2018-03-07T10:46:38.487Z,21.60
2018-03-07T10:49:08.357Z,22.30
2018-03-07T10:51:41.064Z,21.60
2018-03-07T10:54:08.540Z,22.60
2018-03-07T10:56:38.730Z,23.00
2018-03-07T10:59:06.292Z,25.30
2018-03-07T11:01:33.757Z,26.80
2018-03-07T11:04:01.201Z,26.40
2018-03-07T11:06:28.615Z,26.60
2018-03-07T11:08:56.036Z,28.70
2018-03-07T11:11:23.569Z,26.50
2018-03-07T11:13:50.987Z,25.90
2018-03-07T11:16:18.416Z,25.40
2018-03-07T11:18:45.840Z,22.90
2018-03-07T11:21:13.320Z,23.80
2018-03-07T11:23:41.250Z,23.60
2018-03-07T11:26:08.800Z,23.80
2018-03-07T11:28:36.405Z,23.90
2018-03-07T11:31:03.918Z,23.80
2018-03-07T11:33:31.988Z,23.60
2018-03-07T11:35:59.675Z,22.90
2018-03-07T11:38:27.109Z,23.40
2018-03-07T11:40:54.541Z,23.60
2018-03-07T11:43:22.047Z,20.40
2018-03-07T11:45:49.498Z,19.60
2018-03-07T11:48:17.151Z,19.30
2018-03-07T11:50:44.693Z,19.60
2018-03-07T11:53:12.140Z,18.20
2018-03-07T11:55:39.579Z,18.20
2018-03-07T11:58:07.090Z,18.80
2018-03-07T12:00:34.583Z,19.40
2018-03-07T12:03:02.015Z,19.70
2018-03-07T12:05:29.457Z,19.40
2018-03-07T12:07:56.914Z,18.90
2018-03-07T12:10:24.348Z,18.80
2018-03-07T12:12:51.780Z,18.80
2018-03-07T12:15:19.523Z,17.70
2018-03-07T12:17:47.046Z,17.80
2018-03-07T12:20:14.685Z,17.50
2018-03-07T12:22:42.109Z,17.40
2018-03-07T12:25:10.517Z,16.30
2018-03-07T12:27:38.018Z,16.30
2018-03-07T12:30:05.463Z,16.80
2018-03-07T12:32:33.009Z,16.70
2018-03-07T12:35:00.448Z,16.80
2018-03-07T12:37:27.920Z,17.00
2018-03-07T12:39:55.356Z,17.50
2018-03-07T12:42:22.778Z,16.80
2018-03-07T12:44:50.207Z,16.60
2018-03-07T12:47:17.652Z,15.40
2018-03-07T12:49:45.093Z,16.40
2018-03-07T12:52:12.565Z,13.80
2018-03-07T12:54:40.116Z,14.10
2018-03-07T12:57:07.748Z,12.60
2018-03-07T12:59:35.332Z,13.40
2018-03-07T13:02:02.758Z,13.90
2018-03-07T13:04:30.189Z,13.40
2018-03-07T13:06:57.608Z,13.50
2018-03-07T13:09:25.161Z,13.90
2018-03-07T13:11:52.610Z,13.50
2018-03-07T13:14:20.072Z,13.30
2018-03-07T13:16:47.529Z,13.20
2018-03-07T13:19:14.985Z,13.40
2018-03-07T13:21:42.440Z,14.10
2018-03-07T13:24:09.872Z,14.50
2018-03-07T13:26:37.351Z,13.80
2018-03-07T13:29:04.789Z,13.60
2018-03-07T13:31:32.224Z,14.00
2018-03-07T13:33:59.644Z,14.70
2018-03-07T13:36:27.092Z,14.00
2018-03-07T13:38:54.536Z,15.00
2018-03-07T13:41:21.979Z,14.40
2018-03-07T13:43:49.452Z,13.80
2018-03-07T13:46:17.004Z,13.90
2018-03-07T13:48:44.436Z,14.80
2018-03-07T13:51:11.919Z,14.60
2018-03-07T13:53:39.568Z,14.10
2018-03-07T13:56:07.137Z,13.20
2018-03-07T13:58:34.596Z,12.30
2018-03-07T14:01:02.049Z,12.10
2018-03-07T14:03:29.505Z,11.40
2018-03-07T14:05:56.931Z,10.80
2018-03-07T14:08:24.359Z,10.20
2018-03-07T14:10:52.556Z,10.90
2018-03-07T14:13:20.256Z,10.90
2018-03-07T14:15:47.712Z,10.60
2018-03-07T14:18:15.148Z,11.40
2018-03-07T14:20:42.620Z,10.90
2018-03-07T14:23:10.080Z,10.00
2018-03-07T14:25:37.716Z,10.40
2018-03-07T14:28:05.303Z,10.80
2018-03-07T14:30:32.753Z,10.90
2018-03-07T14:33:02.934Z,11.40
2018-03-07T14:35:30.454Z,10.90
2018-03-07T14:37:57.872Z,11.50
2018-03-07T14:40:25.307Z,11.90
2018-03-07T14:42:52.724Z,12.50
2018-03-07T14:45:20.164Z,13.30
2018-03-07T14:47:47.722Z,16.30
2018-03-07T14:50:16.928Z,21.90
2018-03-07T14:52:44.468Z,27.60
2018-03-07T14:55:11.924Z,32.20
2018-03-07T14:57:39.374Z,34.50
2018-03-07T15:00:06.840Z,35.60
2018-03-07T15:02:34.292Z,41.20
2018-03-07T15:05:01.716Z,43.20
2018-03-07T15:07:29.199Z,45.80
2018-03-07T15:09:56.628Z,48.30
2018-03-07T15:12:24.057Z,50.00
2018-03-07T15:14:52.432Z,52.00
2018-03-07T15:17:19.857Z,51.90
2018-03-07T15:19:47.382Z,55.30
2018-03-07T15:22:14.815Z,58.60
2018-03-07T15:24:42.320Z,43.70
2018-03-07T15:27:09.772Z,31.70
2018-03-07T15:29:37.204Z,23.10
2018-03-07T15:32:04.629Z,19.10
2018-03-07T15:34:32.053Z,11.20
2018-03-07T15:36:59.513Z,10.50
2018-03-07T15:39:26.980Z,9.90
2018-03-07T15:41:54.521Z,9.30
2018-03-07T15:44:21.935Z,9.00
2018-03-07T15:46:49.421Z,6.50
2018-03-07T15:49:16.847Z,5.80
2018-03-07T15:51:44.272Z,6.60
2018-03-07T15:54:11.690Z,5.60
2018-03-07T15:56:39.250Z,4.70
2018-03-07T15:59:07.652Z,4.30
2018-03-07T16:01:36.556Z,4.30
2018-03-07T16:04:03.991Z,5.30
2018-03-07T16:06:35.265Z,4.30
2018-03-07T16:09:02.893Z,4.40
2018-03-07T16:11:32.088Z,5.00
2018-03-07T16:14:00.415Z,4.90
2018-03-07T16:16:27.984Z,2.90
2018-03-07T16:18:55.480Z,4.20
2018-03-07T16:21:23.036Z,6.30
2018-03-07T16:23:50.475Z,9.20
2018-03-07T16:26:17.935Z,11.90
2018-03-07T16:28:45.371Z,14.60
2018-03-07T16:31:12.854Z,16.30
2018-03-07T16:33:40.314Z,18.10
2018-03-07T16:36:08.799Z,19.20
2018-03-07T16:38:36.452Z,21.30
2018-03-07T16:41:03.906Z,22.00
2018-03-07T16:43:31.348Z,23.20
2018-03-07T16:45:58.820Z,24.00
2018-03-07T16:48:26.269Z,24.30
2018-03-07T16:50:53.726Z,24.60
2018-03-07T16:53:21.144Z,25.60
2018-03-07T16:55:48.577Z,26.50
2018-03-07T16:58:16.004Z,27.90
2018-03-07T17:00:43.968Z,27.80
2018-03-07T17:03:11.514Z,29.30
2018-03-07T17:05:38.992Z,28.50
2018-03-07T17:08:06.540Z,28.50
2018-03-07T17:10:33.982Z,31.40
2018-03-07T17:13:01.452Z,29.70
2018-03-07T17:15:28.908Z,30.00
2018-03-07T17:17:56.376Z,30.50
2018-03-07T17:20:23.807Z,31.20
2018-03-07T17:22:51.276Z,31.40
2018-03-07T17:25:18.718Z,32.20
2018-03-07T17:27:46.187Z,32.30
2018-03-07T17:30:13.643Z,32.20
2018-03-07T17:32:41.104Z,32.00
2018-03-07T17:35:08.524Z,32.30
2018-03-07T17:37:36.017Z,32.50
2018-03-07T17:40:03.460Z,32.50
2018-03-07T17:42:30.929Z,32.20
2018-03-07T17:44:58.552Z,32.30
2018-03-07T17:47:26.088Z,32.50
2018-03-07T17:49:53.579Z,32.70
2018-03-07T17:52:21.060Z,32.70
2018-03-07T17:54:48.502Z,32.20
2018-03-07T17:57:15.976Z,32.70
2018-03-07T17:59:43.411Z,32.80
2018-03-07T18:02:11.086Z,33.80
2018-03-07T18:04:38.549Z,35.10
2018-03-07T18:07:06.044Z,36.40
2018-03-07T18:09:33.561Z,37.00
2018-03-07T18:12:00.984Z,37.40
2018-03-07T18:14:28.468Z,37.80
2018-03-07T18:16:55.895Z,37.60
2018-03-07T18:19:23.324Z,37.60
2018-03-07T18:21:51.764Z,38.20
2018-03-07T18:24:19.516Z,38.20
2018-03-07T18:26:46.988Z,38.30
2018-03-07T18:29:14.640Z,36.90
2018-03-07T18:31:42.205Z,37.00
2018-03-07T18:34:09.659Z,36.00
2018-03-07T18:36:37.319Z,35.30
2018-03-07T18:39:04.892Z,35.30
2018-03-07T18:41:32.354Z,35.30
2018-03-07T18:43:59.978Z,35.30
2018-03-07T18:46:27.401Z,35.00
2018-03-07T18:48:55.608Z,35.10
2018-03-07T18:51:23.029Z,35.00
2018-03-07T18:53:50.469Z,34.80
2018-03-07T18:56:17.992Z,35.00
2018-03-07T18:58:45.764Z,34.40
2018-03-07T19:01:13.214Z,34.20
2018-03-07T19:03:40.836Z,34.50
2018-03-07T19:06:08.432Z,34.10
2018-03-07T19:08:35.856Z,34.40
2018-03-07T19:11:03.349Z,34.40
2018-03-07T19:13:30.973Z,34.70
2018-03-07T19:15:58.554Z,34.70
2018-03-07T19:18:26.028Z,35.00
2018-03-07T19:20:53.480Z,34.00
2018-03-07T19:23:20.918Z,33.80
2018-03-07T19:25:48.392Z,33.30
2018-03-07T19:28:15.816Z,33.20
2018-03-07T19:30:43.243Z,33.00
2018-03-07T19:33:10.735Z,33.40
2018-03-07T19:35:38.216Z,33.20
2018-03-07T19:38:05.685Z,33.50
2018-03-07T19:40:33.118Z,33.00
2018-03-07T19:43:00.535Z,32.80
2018-03-07T19:45:28.040Z,33.40
2018-03-07T19:47:55.682Z,33.70
2018-03-07T19:50:23.262Z,33.90
2018-03-07T19:52:50.697Z,33.50
2018-03-07T19:55:18.116Z,33.60
2018-03-07T19:57:45.548Z,33.10
2018-03-07T20:00:13.023Z,32.40
2018-03-07T20:02:40.451Z,32.40
2018-03-07T20:05:07.999Z,32.70
2018-03-07T20:07:35.433Z,33.00
2018-03-07T20:10:02.860Z,32.90
2018-03-07T20:12:30.296Z,33.00
2018-03-07T20:14:57.724Z,33.00
2018-03-07T20:19:59.056Z,33.40
2018-03-07T20:22:26.645Z,34.00
2018-03-07T20:24:54.268Z,33.80
2018-03-07T20:27:21.815Z,34.00
2018-03-07T20:29:49.236Z,34.80
2018-03-07T20:32:16.666Z,34.30
2018-03-07T20:34:44.233Z,34.70
2018-03-07T20:37:11.667Z,33.40
2018-03-07T20:39:39.143Z,33.40
2018-03-07T20:42:06.601Z,33.00
2018-03-07T20:44:34.360Z,33.20
2018-03-07T20:47:02.141Z,32.50
2018-03-07T20:49:29.580Z,31.70
2018-03-07T20:51:57.000Z,31.10
2018-03-07T20:54:24.496Z,30.80
2018-03-07T20:56:51.912Z,30.70
2018-03-07T20:59:19.344Z,31.40
2018-03-07T21:01:46.759Z,31.70
2018-03-07T21:04:14.270Z,32.10
2018-03-07T21:06:41.781Z,32.40
2018-03-07T21:09:09.232Z,32.60
2018-03-07T21:11:36.657Z,32.80
2018-03-07T21:14:04.148Z,33.20
2018-03-07T21:16:31.784Z,33.60
2018-03-07T21:18:59.259Z,33.80
2018-03-07T21:21:26.731Z,33.70
2018-03-07T21:23:54.285Z,34.20
2018-03-07T21:26:21.712Z,34.40
2018-03-07T21:28:49.201Z,34.40
2018-03-07T21:31:16.656Z,34.50
2018-03-07T21:33:44.086Z,34.60
2018-03-07T21:36:11.556Z,34.50
2018-03-07T21:38:38.981Z,34.60
2018-03-07T21:41:07.345Z,34.70
2018-03-07T21:43:34.764Z,35.00
2018-03-07T21:46:02.208Z,34.40
2018-03-07T21:48:29.772Z,34.40
2018-03-07T21:50:57.197Z,34.40
2018-03-07T21:53:24.641Z,34.40
2018-03-07T21:55:52.064Z,34.40
2018-03-07T21:58:19.533Z,34.40
2018-03-07T22:00:46.948Z,33.50
2018-03-07T22:03:14.496Z,34.40
2018-03-07T22:05:41.921Z,34.40
2018-03-07T22:08:09.406Z,34.30
2018-03-07T22:10:36.808Z,34.40
2018-03-07T22:13:04.320Z,34.40
2018-03-07T22:15:31.784Z,34.40
2018-03-07T22:17:59.236Z,34.40
2018-03-07T22:20:26.663Z,34.60
2018-03-07T22:22:54.151Z,35.10
2018-03-07T22:25:21.587Z,35.30
2018-03-07T22:27:49.060Z,35.40
2018-03-07T22:30:16.500Z,35.60
2018-03-07T22:32:44.004Z,35.90
2018-03-07T22:35:11.613Z,35.80
2018-03-07T22:37:39.191Z,35.90
2018-03-07T22:40:06.625Z,35.50
2018-03-07T22:42:34.044Z,35.80
2018-03-07T22:45:01.565Z,35.80
2018-03-07T22:47:29.197Z,35.60
2018-03-07T22:49:56.780Z,35.20
2018-03-07T22:52:24.249Z,35.00
2018-03-07T22:54:51.703Z,34.80
2018-03-07T22:57:19.157Z,35.00
2018-03-07T22:59:46.791Z,35.00
2018-03-07T23:02:14.373Z,35.10
2018-03-07T23:04:41.824Z,35.30
2018-03-07T23:07:09.274Z,35.20
2018-03-07T23:09:36.705Z,35.10
2018-03-07T23:12:04.136Z,35.50
2018-03-07T23:14:31.560Z,35.80
2018-03-07T23:16:59.116Z,35.80
2018-03-07T23:19:26.546Z,36.40
2018-03-07T23:21:54.020Z,36.60
2018-03-07T23:24:21.442Z,36.80
2018-03-07T23:26:48.868Z,36.70
2018-03-07T23:29:16.431Z,36.80
2018-03-07T23:31:43.841Z,36.90
2018-03-07T23:34:11.299Z,36.70
2018-03-07T23:36:38.739Z,37.00
2018-03-07T23:39:06.209Z,37.00
2018-03-07T23:41:33.628Z,37.00
2018-03-07T23:44:01.090Z,37.00
2018-03-07T23:46:28.497Z,36.90
2018-03-07T23:48:55.932Z,36.90
2018-03-07T23:51:23.371Z,36.90
2018-03-07T23:53:50.887Z,36.90
2018-03-07T23:56:19.208Z,36.50
2018-03-07T23:58:46.701Z,36.50
